sensor_id;sensor_type;location;lat;lon;timestamp;P1;durP1;ratioP1;P2;durP2;ratioP2
20545;SDS011;10431;50.228;9.112;2023-11-19T00:00:34;3.00;;;1.90;;
20545;SDS011;10431;50.228;9.112;2023-11-19T00:03:01;3.95;;;1.55;;
20545;SDS011;10431;50.228;9.112;2023-11-19T00:05:27;5.55;;;1.60;;
20545;SDS011;10431;50.228;9.112;2023-11-19T00:07:54;2.55;;;1.75;;
20545;SDS011;10431;50.228;9.112;2023-11-19T00:10:20;2.45;;;1.50;;
20545;SDS011;10431;50.228;9.112;2023-11-19T00:12:47;4.22;;;1.48;;
20545;SDS011;10431;50.228;9.112;2023-11-19T00:15:17;2.22;;;1.35;;
20545;SDS011;10431;50.228;9.112;2023-11-19T00:17:44;2.58;;;1.73;;
20545;SDS011;10431;50.228;9.112;2023-11-19T00:20:12;3.50;;;1.35;;
20545;SDS011;10431;50.228;9.112;2023-11-19T00:22:39;4.65;;;1.90;;
20545;SDS011;10431;50.228;9.112;2023-11-19T00:25:07;3.17;;;1.52;;
20545;SDS011;10431;50.228;9.112;2023-11-19T00:27:36;5.75;;;1.42;;
20545;SDS011;10431;50.228;9.112;2023-11-19T00:30:04;5.03;;;1.60;;
20545;SDS011;10431;50.228;9.112;2023-11-19T00:32:32;3.53;;;1.55;;
20545;SDS011;10431;50.228;9.112;2023-11-19T00:34:59;1.92;;;1.50;;
20545;SDS011;10431;50.228;9.112;2023-11-19T00:37:26;2.60;;;1.50;;
20545;SDS011;10431;50.228;9.112;2023-11-19T00:39:52;3.08;;;1.40;;
20545;SDS011;10431;50.228;9.112;2023-11-19T00:42:18;3.97;;;1.77;;
20545;SDS011;10431;50.228;9.112;2023-11-19T00:44:44;5.90;;;1.98;;
20545;SDS011;10431;50.228;9.112;2023-11-19T00:47:11;3.88;;;1.52;;
20545;SDS011;10431;50.228;9.112;2023-11-19T00:49:38;3.05;;;1.50;;
20545;SDS011;10431;50.228;9.112;2023-11-19T00:52:04;4.53;;;1.50;;
20545;SDS011;10431;50.228;9.112;2023-11-19T00:54:32;4.22;;;1.50;;
20545;SDS011;10431;50.228;9.112;2023-11-19T00:56:58;2.40;;;1.60;;
20545;SDS011;10431;50.228;9.112;2023-11-19T00:59:25;3.13;;;1.40;;
20545;SDS011;10431;50.228;9.112;2023-11-19T01:01:51;1.98;;;1.52;;
20545;SDS011;10431;50.228;9.112;2023-11-19T01:04:17;2.05;;;1.40;;
20545;SDS011;10431;50.228;9.112;2023-11-19T01:06:43;2.03;;;1.30;;
20545;SDS011;10431;50.228;9.112;2023-11-19T01:09:09;1.42;;;1.20;;
20545;SDS011;10431;50.228;9.112;2023-11-19T01:11:35;2.05;;;1.30;;
20545;SDS011;10431;50.228;9.112;2023-11-19T01:14:02;2.70;;;1.33;;
20545;SDS011;10431;50.228;9.112;2023-11-19T01:16:28;3.63;;;1.33;;
20545;SDS011;10431;50.228;9.112;2023-11-19T01:18:55;3.42;;;1.38;;
20545;SDS011;10431;50.228;9.112;2023-11-19T01:21:22;5.15;;;1.45;;
20545;SDS011;10431;50.228;9.112;2023-11-19T01:23:48;2.17;;;1.17;;
20545;SDS011;10431;50.228;9.112;2023-11-19T01:26:15;4.15;;;1.35;;
20545;SDS011;10431;50.228;9.112;2023-11-19T01:28:41;4.07;;;1.38;;
20545;SDS011;10431;50.228;9.112;2023-11-19T01:31:11;1.48;;;1.17;;
20545;SDS011;10431;50.228;9.112;2023-11-19T01:33:38;2.13;;;1.58;;
20545;SDS011;10431;50.228;9.112;2023-11-19T01:36:05;1.58;;;1.33;;
20545;SDS011;10431;50.228;9.112;2023-11-19T01:38:34;1.90;;;1.35;;
20545;SDS011;10431;50.228;9.112;2023-11-19T01:41:01;2.40;;;1.30;;
20545;SDS011;10431;50.228;9.112;2023-11-19T01:43:32;2.40;;;1.50;;
20545;SDS011;10431;50.228;9.112;2023-11-19T01:46:00;2.97;;;1.60;;
20545;SDS011;10431;50.228;9.112;2023-11-19T01:48:27;1.77;;;1.20;;
20545;SDS011;10431;50.228;9.112;2023-11-19T01:50:54;1.75;;;1.08;;
20545;SDS011;10431;50.228;9.112;2023-11-19T01:53:21;2.40;;;1.20;;
20545;SDS011;10431;50.228;9.112;2023-11-19T01:55:47;2.25;;;1.40;;
20545;SDS011;10431;50.228;9.112;2023-11-19T01:58:14;2.63;;;1.63;;
20545;SDS011;10431;50.228;9.112;2023-11-19T02:00:42;2.13;;;1.15;;
20545;SDS011;10431;50.228;9.112;2023-11-19T02:03:09;5.50;;;1.42;;
20545;SDS011;10431;50.228;9.112;2023-11-19T02:05:37;1.80;;;1.20;;
20545;SDS011;10431;50.228;9.112;2023-11-19T02:08:05;4.80;;;1.35;;
20545;SDS011;10431;50.228;9.112;2023-11-19T02:10:31;2.45;;;1.45;;
20545;SDS011;10431;50.228;9.112;2023-11-19T02:12:58;2.13;;;1.33;;
20545;SDS011;10431;50.228;9.112;2023-11-19T02:15:24;1.98;;;1.10;;
20545;SDS011;10431;50.228;9.112;2023-11-19T02:17:50;1.73;;;1.40;;
20545;SDS011;10431;50.228;9.112;2023-11-19T02:20:17;2.55;;;1.10;;
20545;SDS011;10431;50.228;9.112;2023-11-19T02:22:48;2.17;;;0.90;;
20545;SDS011;10431;50.228;9.112;2023-11-19T02:25:21;2.33;;;1.17;;
20545;SDS011;10431;50.228;9.112;2023-11-19T02:27:54;2.22;;;0.90;;
20545;SDS011;10431;50.228;9.112;2023-11-19T02:30:24;1.77;;;1.15;;
20545;SDS011;10431;50.228;9.112;2023-11-19T02:32:57;1.40;;;1.00;;
20545;SDS011;10431;50.228;9.112;2023-11-19T02:35:26;2.47;;;1.13;;
20545;SDS011;10431;50.228;9.112;2023-11-19T02:37:56;2.25;;;1.15;;
20545;SDS011;10431;50.228;9.112;2023-11-19T02:40:23;1.92;;;1.30;;
20545;SDS011;10431;50.228;9.112;2023-11-19T02:42:50;2.05;;;1.25;;
20545;SDS011;10431;50.228;9.112;2023-11-19T02:45:24;2.15;;;1.33;;
20545;SDS011;10431;50.228;9.112;2023-11-19T02:47:51;2.20;;;1.20;;
20545;SDS011;10431;50.228;9.112;2023-11-19T02:50:21;1.33;;;1.00;;
20545;SDS011;10431;50.228;9.112;2023-11-19T02:52:54;2.75;;;1.10;;
20545;SDS011;10431;50.228;9.112;2023-11-19T02:55:24;1.30;;;1.15;;
20545;SDS011;10431;50.228;9.112;2023-11-19T02:57:51;1.80;;;1.30;;
20545;SDS011;10431;50.228;9.112;2023-11-19T03:00:19;2.15;;;1.23;;
20545;SDS011;10431;50.228;9.112;2023-11-19T03:02:51;1.83;;;1.15;;
20545;SDS011;10431;50.228;9.112;2023-11-19T03:05:31;2.10;;;1.10;;
20545;SDS011;10431;50.228;9.112;2023-11-19T03:07:57;4.03;;;1.10;;
20545;SDS011;10431;50.228;9.112;2023-11-19T03:10:23;2.20;;;1.23;;
20545;SDS011;10431;50.228;9.112;2023-11-19T03:12:49;3.17;;;1.00;;
20545;SDS011;10431;50.228;9.112;2023-11-19T03:15:15;1.20;;;1.10;;
20545;SDS011;10431;50.228;9.112;2023-11-19T03:17:42;1.17;;;1.00;;
20545;SDS011;10431;50.228;9.112;2023-11-19T03:20:10;3.30;;;1.10;;
20545;SDS011;10431;50.228;9.112;2023-11-19T03:22:43;3.90;;;1.20;;
20545;SDS011;10431;50.228;9.112;2023-11-19T03:25:09;2.55;;;1.20;;
20545;SDS011;10431;50.228;9.112;2023-11-19T03:27:36;1.73;;;1.00;;
20545;SDS011;10431;50.228;9.112;2023-11-19T03:30:05;1.20;;;1.10;;
20545;SDS011;10431;50.228;9.112;2023-11-19T03:32:32;3.28;;;1.20;;
20545;SDS011;10431;50.228;9.112;2023-11-19T03:35:04;2.15;;;1.00;;
20545;SDS011;10431;50.228;9.112;2023-11-19T03:37:33;1.17;;;1.02;;
20545;SDS011;10431;50.228;9.112;2023-11-19T03:39:59;1.38;;;1.02;;
20545;SDS011;10431;50.228;9.112;2023-11-19T03:42:29;1.60;;;1.13;;
20545;SDS011;10431;50.228;9.112;2023-11-19T03:44:58;3.63;;;1.33;;
20545;SDS011;10431;50.228;9.112;2023-11-19T03:47:25;2.13;;;1.20;;
20545;SDS011;10431;50.228;9.112;2023-11-19T03:49:52;1.60;;;1.13;;
20545;SDS011;10431;50.228;9.112;2023-11-19T03:52:18;1.52;;;1.20;;
20545;SDS011;10431;50.228;9.112;2023-11-19T03:54:45;1.73;;;1.13;;
20545;SDS011;10431;50.228;9.112;2023-11-19T03:57:12;3.83;;;1.20;;
20545;SDS011;10431;50.228;9.112;2023-11-19T03:59:39;3.25;;;1.00;;
20545;SDS011;10431;50.228;9.112;2023-11-19T04:02:05;1.92;;;1.17;;
20545;SDS011;10431;50.228;9.112;2023-11-19T04:04:32;1.90;;;0.90;;
20545;SDS011;10431;50.228;9.112;2023-11-19T04:06:59;1.48;;;1.20;;
20545;SDS011;10431;50.228;9.112;2023-11-19T04:09:26;2.05;;;0.93;;
20545;SDS011;10431;50.228;9.112;2023-11-19T04:11:52;1.38;;;1.20;;
20545;SDS011;10431;50.228;9.112;2023-11-19T04:14:19;1.63;;;0.80;;
20545;SDS011;10431;50.228;9.112;2023-11-19T04:16:45;1.98;;;1.27;;
20545;SDS011;10431;50.228;9.112;2023-11-19T04:19:12;1.42;;;1.00;;
20545;SDS011;10431;50.228;9.112;2023-11-19T04:21:41;2.38;;;1.20;;
20545;SDS011;10431;50.228;9.112;2023-11-19T04:24:08;0.80;;;0.70;;
20545;SDS011;10431;50.228;9.112;2023-11-19T04:26:44;1.13;;;1.00;;
20545;SDS011;10431;50.228;9.112;2023-11-19T04:29:11;2.38;;;1.05;;
20545;SDS011;10431;50.228;9.112;2023-11-19T04:31:38;6.03;;;1.00;;
20545;SDS011;10431;50.228;9.112;2023-11-19T04:34:05;2.53;;;1.05;;
20545;SDS011;10431;50.228;9.112;2023-11-19T04:36:34;1.25;;;1.13;;
20545;SDS011;10431;50.228;9.112;2023-11-19T04:39:00;2.45;;;1.10;;
20545;SDS011;10431;50.228;9.112;2023-11-19T04:41:27;0.90;;;0.90;;
20545;SDS011;10431;50.228;9.112;2023-11-19T04:43:53;1.50;;;1.00;;
20545;SDS011;10431;50.228;9.112;2023-11-19T04:46:20;1.08;;;0.93;;
20545;SDS011;10431;50.228;9.112;2023-11-19T04:48:46;1.77;;;1.02;;
20545;SDS011;10431;50.228;9.112;2023-11-19T04:51:13;0.98;;;0.90;;
20545;SDS011;10431;50.228;9.112;2023-11-19T04:53:39;0.80;;;0.80;;
20545;SDS011;10431;50.228;9.112;2023-11-19T04:56:08;1.00;;;0.90;;
20545;SDS011;10431;50.228;9.112;2023-11-19T04:58:35;1.48;;;0.93;;
20545;SDS011;10431;50.228;9.112;2023-11-19T05:01:05;1.67;;;1.00;;
20545;SDS011;10431;50.228;9.112;2023-11-19T05:03:31;1.33;;;1.23;;
20545;SDS011;10431;50.228;9.112;2023-11-19T05:05:58;3.55;;;0.85;;
20545;SDS011;10431;50.228;9.112;2023-11-19T05:08:24;1.10;;;1.00;;
20545;SDS011;10431;50.228;9.112;2023-11-19T05:10:51;1.13;;;1.02;;
20545;SDS011;10431;50.228;9.112;2023-11-19T05:13:17;1.77;;;1.33;;
20545;SDS011;10431;50.228;9.112;2023-11-19T05:15:43;1.08;;;0.98;;
20545;SDS011;10431;50.228;9.112;2023-11-19T05:18:09;1.77;;;1.00;;
20545;SDS011;10431;50.228;9.112;2023-11-19T05:20:36;0.93;;;0.75;;
20545;SDS011;10431;50.228;9.112;2023-11-19T05:23:02;2.70;;;1.10;;
20545;SDS011;10431;50.228;9.112;2023-11-19T05:25:28;1.80;;;1.10;;
20545;SDS011;10431;50.228;9.112;2023-11-19T05:27:54;0.82;;;0.82;;
20545;SDS011;10431;50.228;9.112;2023-11-19T05:30:20;1.20;;;1.00;;
20545;SDS011;10431;50.228;9.112;2023-11-19T05:32:46;1.33;;;0.90;;
20545;SDS011;10431;50.228;9.112;2023-11-19T05:35:13;2.60;;;0.88;;
20545;SDS011;10431;50.228;9.112;2023-11-19T05:37:39;1.00;;;0.82;;
20545;SDS011;10431;50.228;9.112;2023-11-19T05:40:06;1.23;;;0.90;;
20545;SDS011;10431;50.228;9.112;2023-11-19T05:42:40;1.15;;;0.90;;
20545;SDS011;10431;50.228;9.112;2023-11-19T05:45:07;2.30;;;0.98;;
20545;SDS011;10431;50.228;9.112;2023-11-19T05:47:35;0.80;;;0.80;;
20545;SDS011;10431;50.228;9.112;2023-11-19T05:50:01;2.10;;;1.00;;
20545;SDS011;10431;50.228;9.112;2023-11-19T05:52:28;2.00;;;0.82;;
20545;SDS011;10431;50.228;9.112;2023-11-19T05:55:01;1.45;;;0.90;;
20545;SDS011;10431;50.228;9.112;2023-11-19T05:57:30;0.70;;;0.70;;
20545;SDS011;10431;50.228;9.112;2023-11-19T05:59:56;0.70;;;0.70;;
20545;SDS011;10431;50.228;9.112;2023-11-19T06:02:24;0.90;;;0.80;;
20545;SDS011;10431;50.228;9.112;2023-11-19T06:04:51;0.98;;;0.88;;
20545;SDS011;10431;50.228;9.112;2023-11-19T06:07:17;1.10;;;0.95;;
20545;SDS011;10431;50.228;9.112;2023-11-19T06:09:43;1.35;;;0.90;;
20545;SDS011;10431;50.228;9.112;2023-11-19T06:12:09;1.15;;;0.85;;
20545;SDS011;10431;50.228;9.112;2023-11-19T06:14:35;0.88;;;0.80;;
20545;SDS011;10431;50.228;9.112;2023-11-19T06:17:01;1.35;;;0.80;;
20545;SDS011;10431;50.228;9.112;2023-11-19T06:19:30;1.50;;;0.98;;
20545;SDS011;10431;50.228;9.112;2023-11-19T06:21:56;1.35;;;0.77;;
20545;SDS011;10431;50.228;9.112;2023-11-19T06:24:23;3.30;;;0.80;;
20545;SDS011;10431;50.228;9.112;2023-11-19T06:26:49;0.90;;;0.65;;
20545;SDS011;10431;50.228;9.112;2023-11-19T06:29:15;1.25;;;0.60;;
20545;SDS011;10431;50.228;9.112;2023-11-19T06:31:45;0.75;;;0.65;;
20545;SDS011;10431;50.228;9.112;2023-11-19T06:34:14;2.15;;;0.70;;
20545;SDS011;10431;50.228;9.112;2023-11-19T06:36:41;1.02;;;0.70;;
20545;SDS011;10431;50.228;9.112;2023-11-19T06:39:09;1.23;;;0.80;;
20545;SDS011;10431;50.228;9.112;2023-11-19T06:41:36;2.03;;;0.80;;
20545;SDS011;10431;50.228;9.112;2023-11-19T06:44:05;2.90;;;1.00;;
20545;SDS011;10431;50.228;9.112;2023-11-19T06:46:31;0.80;;;0.80;;
20545;SDS011;10431;50.228;9.112;2023-11-19T06:48:58;1.50;;;0.80;;
20545;SDS011;10431;50.228;9.112;2023-11-19T06:51:24;1.10;;;0.90;;
20545;SDS011;10431;50.228;9.112;2023-11-19T06:53:50;1.25;;;0.73;;
20545;SDS011;10431;50.228;9.112;2023-11-19T06:56:20;1.10;;;0.80;;
20545;SDS011;10431;50.228;9.112;2023-11-19T06:58:47;0.60;;;0.60;;
20545;SDS011;10431;50.228;9.112;2023-11-19T07:01:14;0.80;;;0.75;;
20545;SDS011;10431;50.228;9.112;2023-11-19T07:03:41;1.35;;;0.88;;
20545;SDS011;10431;50.228;9.112;2023-11-19T07:06:07;0.60;;;0.60;;
20545;SDS011;10431;50.228;9.112;2023-11-19T07:08:34;1.00;;;0.70;;
20545;SDS011;10431;50.228;9.112;2023-11-19T07:11:00;0.70;;;0.65;;
20545;SDS011;10431;50.228;9.112;2023-11-19T07:13:26;2.40;;;0.93;;
20545;SDS011;10431;50.228;9.112;2023-11-19T07:15:55;0.50;;;0.50;;
20545;SDS011;10431;50.228;9.112;2023-11-19T07:18:21;2.08;;;0.70;;
20545;SDS011;10431;50.228;9.112;2023-11-19T07:20:48;0.60;;;0.60;;
20545;SDS011;10431;50.228;9.112;2023-11-19T07:23:14;4.18;;;0.80;;
20545;SDS011;10431;50.228;9.112;2023-11-19T07:25:42;1.42;;;0.70;;
20545;SDS011;10431;50.228;9.112;2023-11-19T07:28:10;1.00;;;0.68;;
20545;SDS011;10431;50.228;9.112;2023-11-19T07:30:37;0.93;;;0.70;;
20545;SDS011;10431;50.228;9.112;2023-11-19T07:33:03;2.28;;;0.77;;
20545;SDS011;10431;50.228;9.112;2023-11-19T07:35:30;0.73;;;0.60;;
20545;SDS011;10431;50.228;9.112;2023-11-19T07:37:57;1.25;;;0.70;;
20545;SDS011;10431;50.228;9.112;2023-11-19T07:40:23;2.22;;;0.70;;
20545;SDS011;10431;50.228;9.112;2023-11-19T07:42:50;0.70;;;0.70;;
20545;SDS011;10431;50.228;9.112;2023-11-19T07:45:16;0.90;;;0.70;;
20545;SDS011;10431;50.228;9.112;2023-11-19T07:47:43;3.05;;;1.08;;
20545;SDS011;10431;50.228;9.112;2023-11-19T07:50:12;0.73;;;0.70;;
20545;SDS011;10431;50.228;9.112;2023-11-19T07:52:42;1.05;;;0.65;;
20545;SDS011;10431;50.228;9.112;2023-11-19T07:55:08;3.83;;;0.85;;
20545;SDS011;10431;50.228;9.112;2023-11-19T07:57:34;2.30;;;0.80;;
20545;SDS011;10431;50.228;9.112;2023-11-19T08:00:00;1.40;;;0.70;;
20545;SDS011;10431;50.228;9.112;2023-11-19T08:02:27;0.82;;;0.70;;
20545;SDS011;10431;50.228;9.112;2023-11-19T08:04:54;0.80;;;0.70;;
20545;SDS011;10431;50.228;9.112;2023-11-19T08:07:21;1.75;;;0.60;;
20545;SDS011;10431;50.228;9.112;2023-11-19T08:09:47;1.67;;;0.70;;
20545;SDS011;10431;50.228;9.112;2023-11-19T08:12:14;0.90;;;0.70;;
20545;SDS011;10431;50.228;9.112;2023-11-19T08:14:42;1.02;;;0.60;;
20545;SDS011;10431;50.228;9.112;2023-11-19T08:17:09;2.17;;;0.70;;
20545;SDS011;10431;50.228;9.112;2023-11-19T08:19:36;1.80;;;0.60;;
20545;SDS011;10431;50.228;9.112;2023-11-19T08:22:02;1.25;;;0.80;;
20545;SDS011;10431;50.228;9.112;2023-11-19T08:24:28;1.05;;;0.70;;
20545;SDS011;10431;50.228;9.112;2023-11-19T08:26:54;2.75;;;0.63;;
20545;SDS011;10431;50.228;9.112;2023-11-19T08:29:21;1.13;;;0.93;;
20545;SDS011;10431;50.228;9.112;2023-11-19T08:31:47;1.75;;;0.77;;
20545;SDS011;10431;50.228;9.112;2023-11-19T08:34:13;4.38;;;1.20;;
20545;SDS011;10431;50.228;9.112;2023-11-19T08:36:39;3.50;;;0.90;;
20545;SDS011;10431;50.228;9.112;2023-11-19T08:39:06;1.52;;;1.30;;
20545;SDS011;10431;50.228;9.112;2023-11-19T08:41:34;2.63;;;1.25;;
20545;SDS011;10431;50.228;9.112;2023-11-19T08:44:00;2.22;;;1.70;;
20545;SDS011;10431;50.228;9.112;2023-11-19T08:46:26;2.35;;;1.40;;
20545;SDS011;10431;50.228;9.112;2023-11-19T08:48:52;1.60;;;1.50;;
20545;SDS011;10431;50.228;9.112;2023-11-19T08:51:21;2.25;;;1.58;;
20545;SDS011;10431;50.228;9.112;2023-11-19T08:53:50;2.80;;;1.58;;
20545;SDS011;10431;50.228;9.112;2023-11-19T08:56:16;2.60;;;1.83;;
20545;SDS011;10431;50.228;9.112;2023-11-19T08:58:42;2.78;;;1.70;;
20545;SDS011;10431;50.228;9.112;2023-11-19T09:01:08;1.75;;;1.63;;
20545;SDS011;10431;50.228;9.112;2023-11-19T09:03:35;1.80;;;1.50;;
20545;SDS011;10431;50.228;9.112;2023-11-19T09:06:02;4.15;;;1.80;;
20545;SDS011;10431;50.228;9.112;2023-11-19T09:08:29;2.00;;;1.73;;
20545;SDS011;10431;50.228;9.112;2023-11-19T09:10:55;1.60;;;1.50;;
20545;SDS011;10431;50.228;9.112;2023-11-19T09:13:21;1.98;;;1.33;;
20545;SDS011;10431;50.228;9.112;2023-11-19T09:15:47;1.20;;;1.10;;
20545;SDS011;10431;50.228;9.112;2023-11-19T09:18:13;7.25;;;1.20;;
20545;SDS011;10431;50.228;9.112;2023-11-19T09:20:40;1.10;;;0.90;;
20545;SDS011;10431;50.228;9.112;2023-11-19T09:23:06;5.53;;;1.17;;
20545;SDS011;10431;50.228;9.112;2023-11-19T09:25:34;2.67;;;1.17;;
20545;SDS011;10431;50.228;9.112;2023-11-19T09:28:00;1.23;;;0.88;;
20545;SDS011;10431;50.228;9.112;2023-11-19T09:30:26;2.45;;;1.05;;
20545;SDS011;10431;50.228;9.112;2023-11-19T09:32:53;2.90;;;1.00;;
20545;SDS011;10431;50.228;9.112;2023-11-19T09:35:19;3.28;;;1.10;;
20545;SDS011;10431;50.228;9.112;2023-11-19T09:37:46;1.90;;;0.93;;
20545;SDS011;10431;50.228;9.112;2023-11-19T09:40:12;5.97;;;1.00;;
20545;SDS011;10431;50.228;9.112;2023-11-19T09:42:42;1.70;;;1.10;;
20545;SDS011;10431;50.228;9.112;2023-11-19T09:45:15;2.50;;;1.60;;
20545;SDS011;10431;50.228;9.112;2023-11-19T09:47:44;3.20;;;1.00;;
20545;SDS011;10431;50.228;9.112;2023-11-19T09:50:15;2.28;;;1.10;;
20545;SDS011;10431;50.228;9.112;2023-11-19T09:52:44;3.58;;;1.00;;
20545;SDS011;10431;50.228;9.112;2023-11-19T09:55:11;8.57;;;1.10;;
20545;SDS011;10431;50.228;9.112;2023-11-19T09:57:38;5.15;;;1.10;;
20545;SDS011;10431;50.228;9.112;2023-11-19T10:00:05;8.10;;;1.33;;
20545;SDS011;10431;50.228;9.112;2023-11-19T10:02:33;2.92;;;1.00;;
20545;SDS011;10431;50.228;9.112;2023-11-19T10:05:04;6.22;;;1.40;;
20545;SDS011;10431;50.228;9.112;2023-11-19T10:07:33;1.95;;;1.00;;
20545;SDS011;10431;50.228;9.112;2023-11-19T10:10:00;5.00;;;1.40;;
20545;SDS011;10431;50.228;9.112;2023-11-19T10:12:27;3.33;;;1.00;;
20545;SDS011;10431;50.228;9.112;2023-11-19T10:14:54;3.85;;;1.58;;
20545;SDS011;10431;50.228;9.112;2023-11-19T10:17:32;3.88;;;1.20;;
20545;SDS011;10431;50.228;9.112;2023-11-19T10:19:59;2.90;;;1.05;;
20545;SDS011;10431;50.228;9.112;2023-11-19T10:22:27;4.68;;;1.10;;
20545;SDS011;10431;50.228;9.112;2023-11-19T10:24:53;5.40;;;0.73;;
20545;SDS011;10431;50.228;9.112;2023-11-19T10:27:19;5.93;;;0.85;;
20545;SDS011;10431;50.228;9.112;2023-11-19T10:29:46;3.63;;;1.00;;
20545;SDS011;10431;50.228;9.112;2023-11-19T10:32:13;1.33;;;0.73;;
20545;SDS011;10431;50.228;9.112;2023-11-19T10:34:42;3.03;;;1.02;;
20545;SDS011;10431;50.228;9.112;2023-11-19T10:37:09;3.95;;;0.90;;
20545;SDS011;10431;50.228;9.112;2023-11-19T10:39:52;1.90;;;0.80;;
20545;SDS011;10431;50.228;9.112;2023-11-19T10:42:20;1.60;;;0.80;;
20545;SDS011;10431;50.228;9.112;2023-11-19T10:44:46;3.78;;;0.80;;
20545;SDS011;10431;50.228;9.112;2023-11-19T10:47:13;1.48;;;0.90;;
20545;SDS011;10431;50.228;9.112;2023-11-19T10:49:40;4.63;;;1.00;;
20545;SDS011;10431;50.228;9.112;2023-11-19T10:52:08;2.90;;;1.05;;
20545;SDS011;10431;50.228;9.112;2023-11-19T10:54:34;2.85;;;0.90;;
20545;SDS011;10431;50.228;9.112;2023-11-19T10:57:02;1.10;;;1.00;;
20545;SDS011;10431;50.228;9.112;2023-11-19T10:59:32;2.30;;;1.00;;
20545;SDS011;10431;50.228;9.112;2023-11-19T11:01:58;2.92;;;0.73;;
20545;SDS011;10431;50.228;9.112;2023-11-19T11:04:31;1.40;;;0.90;;
20545;SDS011;10431;50.228;9.112;2023-11-19T11:07:01;5.32;;;1.00;;
20545;SDS011;10431;50.228;9.112;2023-11-19T11:09:30;2.20;;;0.80;;
20545;SDS011;10431;50.228;9.112;2023-11-19T11:11:57;1.65;;;0.90;;
20545;SDS011;10431;50.228;9.112;2023-11-19T11:14:25;1.42;;;0.90;;
20545;SDS011;10431;50.228;9.112;2023-11-19T11:16:53;1.27;;;0.95;;
20545;SDS011;10431;50.228;9.112;2023-11-19T11:19:20;1.40;;;0.90;;
20545;SDS011;10431;50.228;9.112;2023-11-19T11:21:49;1.83;;;1.00;;
20545;SDS011;10431;50.228;9.112;2023-11-19T11:27:19;2.10;;;0.90;;
20545;SDS011;10431;50.228;9.112;2023-11-19T11:32:44;2.30;;;0.95;;
20545;SDS011;10431;50.228;9.112;2023-11-19T11:35:30;2.05;;;0.85;;
20545;SDS011;10431;50.228;9.112;2023-11-19T11:38:04;2.45;;;1.05;;
20545;SDS011;10431;50.228;9.112;2023-11-19T11:40:32;1.55;;;0.80;;
20545;SDS011;10431;50.228;9.112;2023-11-19T11:42:58;0.82;;;0.77;;
20545;SDS011;10431;50.228;9.112;2023-11-19T11:45:37;1.05;;;0.75;;
20545;SDS011;10431;50.228;9.112;2023-11-19T11:48:08;1.95;;;0.93;;
20545;SDS011;10431;50.228;9.112;2023-11-19T11:50:52;0.98;;;0.80;;
20545;SDS011;10431;50.228;9.112;2023-11-19T11:53:21;2.92;;;0.90;;
20545;SDS011;10431;50.228;9.112;2023-11-19T11:58:19;2.53;;;1.00;;
20545;SDS011;10431;50.228;9.112;2023-11-19T12:00:57;1.67;;;0.90;;
20545;SDS011;10431;50.228;9.112;2023-11-19T12:03:26;4.13;;;0.80;;
20545;SDS011;10431;50.228;9.112;2023-11-19T12:05:53;1.15;;;0.88;;
20545;SDS011;10431;50.228;9.112;2023-11-19T12:08:20;1.65;;;1.00;;
20545;SDS011;10431;50.228;9.112;2023-11-19T12:10:50;1.00;;;0.70;;
20545;SDS011;10431;50.228;9.112;2023-11-19T12:13:17;2.67;;;0.73;;
20545;SDS011;10431;50.228;9.112;2023-11-19T12:20:50;1.27;;;0.88;;
20545;SDS011;10431;50.228;9.112;2023-11-19T12:23:16;1.33;;;0.90;;
20545;SDS011;10431;50.228;9.112;2023-11-19T12:25:42;1.10;;;0.90;;
20545;SDS011;10431;50.228;9.112;2023-11-19T12:28:14;1.45;;;0.73;;
20545;SDS011;10431;50.228;9.112;2023-11-19T12:30:44;2.63;;;0.77;;
20545;SDS011;10431;50.228;9.112;2023-11-19T12:33:12;1.33;;;0.85;;
20545;SDS011;10431;50.228;9.112;2023-11-19T12:35:42;0.80;;;0.60;;
20545;SDS011;10431;50.228;9.112;2023-11-19T12:38:22;0.90;;;0.60;;
20545;SDS011;10431;50.228;9.112;2023-11-19T12:41:05;1.73;;;0.85;;
20545;SDS011;10431;50.228;9.112;2023-11-19T12:43:32;2.78;;;0.80;;
20545;SDS011;10431;50.228;9.112;2023-11-19T12:46:03;2.25;;;0.75;;
20545;SDS011;10431;50.228;9.112;2023-11-19T12:48:48;0.95;;;0.70;;
20545;SDS011;10431;50.228;9.112;2023-11-19T12:51:15;1.23;;;0.70;;
20545;SDS011;10431;50.228;9.112;2023-11-19T12:53:48;1.88;;;0.60;;
20545;SDS011;10431;50.228;9.112;2023-11-19T12:56:20;1.05;;;0.90;;
20545;SDS011;10431;50.228;9.112;2023-11-19T12:58:47;0.88;;;0.57;;
20545;SDS011;10431;50.228;9.112;2023-11-19T13:01:20;1.52;;;0.80;;
20545;SDS011;10431;50.228;9.112;2023-11-19T13:03:46;2.20;;;0.73;;
20545;SDS011;10431;50.228;9.112;2023-11-19T13:06:14;1.00;;;0.70;;
20545;SDS011;10431;50.228;9.112;2023-11-19T13:08:47;2.30;;;0.68;;
20545;SDS011;10431;50.228;9.112;2023-11-19T13:11:19;1.25;;;0.88;;
20545;SDS011;10431;50.228;9.112;2023-11-19T13:14:00;0.70;;;0.70;;
20545;SDS011;10431;50.228;9.112;2023-11-19T13:16:30;1.10;;;0.77;;
20545;SDS011;10431;50.228;9.112;2023-11-19T13:18:57;1.77;;;0.73;;
20545;SDS011;10431;50.228;9.112;2023-11-19T13:21:24;1.00;;;0.80;;
20545;SDS011;10431;50.228;9.112;2023-11-19T13:23:52;1.60;;;0.90;;
20545;SDS011;10431;50.228;9.112;2023-11-19T13:26:18;1.45;;;0.80;;
20545;SDS011;10431;50.228;9.112;2023-11-19T13:28:44;1.23;;;0.80;;
20545;SDS011;10431;50.228;9.112;2023-11-19T13:31:10;0.40;;;0.40;;
20545;SDS011;10431;50.228;9.112;2023-11-19T13:33:36;1.33;;;0.60;;
20545;SDS011;10431;50.228;9.112;2023-11-19T13:36:03;1.67;;;0.55;;
20545;SDS011;10431;50.228;9.112;2023-11-19T13:38:33;1.13;;;0.70;;
20545;SDS011;10431;50.228;9.112;2023-11-19T13:41:03;0.90;;;0.80;;
20545;SDS011;10431;50.228;9.112;2023-11-19T13:43:30;1.67;;;0.70;;
20545;SDS011;10431;50.228;9.112;2023-11-19T13:45:57;0.82;;;0.60;;
20545;SDS011;10431;50.228;9.112;2023-11-19T13:48:24;1.42;;;0.80;;
20545;SDS011;10431;50.228;9.112;2023-11-19T13:50:50;2.72;;;0.77;;
20545;SDS011;10431;50.228;9.112;2023-11-19T13:53:16;1.15;;;0.70;;
20545;SDS011;10431;50.228;9.112;2023-11-19T13:55:42;0.73;;;0.70;;
20545;SDS011;10431;50.228;9.112;2023-11-19T13:58:09;3.00;;;0.80;;
20545;SDS011;10431;50.228;9.112;2023-11-19T14:00:36;1.90;;;0.68;;
20545;SDS011;10431;50.228;9.112;2023-11-19T14:03:02;0.93;;;0.60;;
20545;SDS011;10431;50.228;9.112;2023-11-19T14:05:29;2.75;;;0.73;;
20545;SDS011;10431;50.228;9.112;2023-11-19T14:07:55;1.30;;;0.70;;
20545;SDS011;10431;50.228;9.112;2023-11-19T14:10:23;0.80;;;0.80;;
20545;SDS011;10431;50.228;9.112;2023-11-19T14:12:49;3.50;;;0.70;;
20545;SDS011;10431;50.228;9.112;2023-11-19T14:15:15;1.42;;;0.90;;
20545;SDS011;10431;50.228;9.112;2023-11-19T14:17:45;1.05;;;0.60;;
20545;SDS011;10431;50.228;9.112;2023-11-19T14:20:11;0.90;;;0.70;;
20545;SDS011;10431;50.228;9.112;2023-11-19T14:22:41;1.10;;;0.65;;
20545;SDS011;10431;50.228;9.112;2023-11-19T14:25:09;1.05;;;0.60;;
20545;SDS011;10431;50.228;9.112;2023-11-19T14:27:39;0.85;;;0.60;;
20545;SDS011;10431;50.228;9.112;2023-11-19T14:30:08;1.83;;;0.68;;
20545;SDS011;10431;50.228;9.112;2023-11-19T14:32:42;1.10;;;0.85;;
20545;SDS011;10431;50.228;9.112;2023-11-19T14:35:12;0.88;;;0.60;;
20545;SDS011;10431;50.228;9.112;2023-11-19T14:37:38;1.45;;;0.60;;
20545;SDS011;10431;50.228;9.112;2023-11-19T14:40:05;0.73;;;0.70;;
20545;SDS011;10431;50.228;9.112;2023-11-19T14:42:34;1.10;;;0.70;;
20545;SDS011;10431;50.228;9.112;2023-11-19T14:45:00;0.60;;;0.60;;
20545;SDS011;10431;50.228;9.112;2023-11-19T14:47:26;0.68;;;0.55;;
20545;SDS011;10431;50.228;9.112;2023-11-19T14:49:53;0.93;;;0.70;;
20545;SDS011;10431;50.228;9.112;2023-11-19T14:52:19;1.17;;;0.80;;
20545;SDS011;10431;50.228;9.112;2023-11-19T14:54:45;2.33;;;1.13;;
20545;SDS011;10431;50.228;9.112;2023-11-19T14:57:11;2.03;;;0.77;;
20545;SDS011;10431;50.228;9.112;2023-11-19T14:59:38;1.48;;;0.70;;
20545;SDS011;10431;50.228;9.112;2023-11-19T15:02:05;2.85;;;0.90;;
20545;SDS011;10431;50.228;9.112;2023-11-19T15:04:31;1.08;;;0.70;;